Search for airport 
image banner adimage banner ad
image banner ad

EKTB - Torshavn/Bodanes

Situé à Torshavn, Faroe Islands

ICAO - EKTB, IATA -

Données fournies par Airmate  

Information générale

Coordonnées: N62°1'18" W6°45'27"
Élévation : 68 feet MSL.
Variation magnétique : -8.2° East
Voir autres Aéroports à (unassigned)

Données opérationnelles

Special qualification required
Heure actuelle UTC:
Heure actuelle locale:
Météo à : EKVG - Vagar ( 27 km )
METAR: EKVG 012020Z AUTO 16002KT 9999 BKN007/// 07/07 Q1028
TAF: TAF EKVG 011422Z 0115/0124 24017G27KT 7000 -RADZ BR OVC004 TEMPO 0115/0121 1200 DZ BR VV001 BECMG 0116/0117 31007KT
Voir NOTAMs / SUP AIP / TFR affectant cet aéroport [VIEW]
Fréquences de communication: [VIEW]

Pistes:

Coordonnées de l'aéroport

Adresse: Torshavn Faroe Islands

Vue satellite de EKTB